createdAt,value
2022-12-26T00:01:51.144Z,12.50
2022-12-26T00:04:50.597Z,12.40
2022-12-26T00:07:06.140Z,12.40
2022-12-26T00:09:34.156Z,12.40
2022-12-26T00:12:01.523Z,12.30
2022-12-26T00:14:28.936Z,12.20
2022-12-26T00:16:56.118Z,12.20
2022-12-26T00:19:23.493Z,12.20
2022-12-26T00:21:51.452Z,12.10
2022-12-26T00:24:19.295Z,12.20
2022-12-26T00:26:46.713Z,12.20
2022-12-26T00:29:14.083Z,12.10
2022-12-26T00:31:41.444Z,12.10
2022-12-26T00:34:10.083Z,12.10
2022-12-26T00:36:38.880Z,12.10
2022-12-26T00:39:06.274Z,12.10
2022-12-26T00:41:34.165Z,12.00
2022-12-26T00:44:01.592Z,12.00
2022-12-26T00:46:29.744Z,12.00
2022-12-26T00:48:58.081Z,12.00
2022-12-26T00:51:26.382Z,12.00
2022-12-26T00:53:53.620Z,12.00
2022-12-26T00:56:20.972Z,11.90
2022-12-26T00:58:48.407Z,11.90
2022-12-26T01:01:21.924Z,12.00
2022-12-26T01:03:50.360Z,11.90
2022-12-26T01:06:19.366Z,11.90
2022-12-26T01:08:46.687Z,11.90
2022-12-26T01:11:36.565Z,11.90
2022-12-26T01:14:04.630Z,11.90
2022-12-26T01:16:32.361Z,11.80
2022-12-26T01:18:59.781Z,11.80
2022-12-26T01:21:27.121Z,11.80
2022-12-26T01:23:55.463Z,11.90
2022-12-26T01:26:22.813Z,11.90
2022-12-26T01:28:52.018Z,11.80
2022-12-26T01:31:22.138Z,11.80
2022-12-26T01:33:49.937Z,11.80
2022-12-26T01:36:18.684Z,11.80
2022-12-26T01:38:46.498Z,11.80
2022-12-26T01:41:17.132Z,11.70
2022-12-26T01:43:55.747Z,11.70
2022-12-26T01:46:33.199Z,11.70
2022-12-26T01:49:28.430Z,11.70
2022-12-26T01:52:00.314Z,11.60
2022-12-26T01:54:39.050Z,11.60
2022-12-26T01:57:17.852Z,11.60
2022-12-26T01:59:46.780Z,11.60
2022-12-26T02:02:15.398Z,11.50
2022-12-26T02:05:05.631Z,11.50
2022-12-26T02:07:35.302Z,11.50
2022-12-26T02:10:04.066Z,11.40
2022-12-26T02:12:38.693Z,11.40
2022-12-26T02:15:14.270Z,11.50
2022-12-26T02:17:42.312Z,11.40
2022-12-26T02:20:27.764Z,11.40
2022-12-26T02:23:25.989Z,11.40
2022-12-26T02:26:41.050Z,11.40
2022-12-26T02:29:39.026Z,11.40
2022-12-26T02:32:26.578Z,11.40
2022-12-26T02:35:33.159Z,11.40
2022-12-26T02:38:03.494Z,11.40
2022-12-26T02:40:57.986Z,11.30
2022-12-26T02:44:27.141Z,11.30
2022-12-26T02:47:20.858Z,11.20
2022-12-26T02:50:22.042Z,11.20
2022-12-26T02:53:22.943Z,11.20
2022-12-26T02:56:11.806Z,11.20
2022-12-26T02:59:18.989Z,11.20
2022-12-26T03:02:29.689Z,11.20
2022-12-26T03:05:16.667Z,11.20
2022-12-26T03:08:03.458Z,11.20
2022-12-26T03:10:53.854Z,11.10
2022-12-26T03:13:25.962Z,11.10
2022-12-26T03:16:28.084Z,11.10
2022-12-26T03:19:05.399Z,11.10
2022-12-26T03:21:41.920Z,11.10
2022-12-26T03:24:12.620Z,11.10
2022-12-26T03:26:47.805Z,11.10
2022-12-26T03:29:36.365Z,11.10
2022-12-26T03:32:08.423Z,11.10
2022-12-26T03:34:42.844Z,11.10
2022-12-26T03:37:50.131Z,11.10
2022-12-26T03:40:58.440Z,11.10
2022-12-26T03:44:09.391Z,11.10
2022-12-26T03:47:31.987Z,11.20
2022-12-26T03:50:24.120Z,11.30
2022-12-26T03:53:26.866Z,11.30
2022-12-26T03:56:12.627Z,11.30
2022-12-26T03:59:08.422Z,11.30
2022-12-26T04:01:57.164Z,11.30
2022-12-26T04:04:45.392Z,11.30
2022-12-26T04:07:56.293Z,11.30
2022-12-26T04:10:55.472Z,11.30
2022-12-26T04:14:22.601Z,11.30
2022-12-26T04:17:31.661Z,11.30
2022-12-26T04:20:18.917Z,11.30
2022-12-26T04:23:08.339Z,11.40
2022-12-26T04:26:09.147Z,11.40
2022-12-26T04:28:54.818Z,11.40
2022-12-26T04:31:43.910Z,11.40
2022-12-26T04:34:38.936Z,11.30
2022-12-26T04:37:34.140Z,11.30
2022-12-26T04:40:21.631Z,11.30
2022-12-26T04:43:47.484Z,11.30
2022-12-26T04:45:56.226Z,11.30
2022-12-26T04:48:41.851Z,11.30
2022-12-26T04:51:09.301Z,11.30
2022-12-26T04:53:36.611Z,11.30
2022-12-26T04:56:04.571Z,11.30
2022-12-26T04:58:31.935Z,11.30
2022-12-26T05:01:22.140Z,11.30
2022-12-26T05:04:08.372Z,11.30
2022-12-26T05:06:54.075Z,11.30
2022-12-26T05:09:38.709Z,11.20
2022-12-26T05:12:08.737Z,11.30
2022-12-26T05:14:36.986Z,11.30
2022-12-26T05:17:26.317Z,11.30
2022-12-26T05:20:13.515Z,11.40
2022-12-26T05:23:02.359Z,11.40
2022-12-26T05:25:52.166Z,11.30
2022-12-26T05:28:39.203Z,11.20
2022-12-26T05:31:06.995Z,11.20
2022-12-26T05:33:52.923Z,11.20
2022-12-26T05:36:23.350Z,11.10
2022-12-26T05:38:50.754Z,11.10
2022-12-26T05:41:18.339Z,11.10
2022-12-26T05:43:45.759Z,11.00
2022-12-26T05:46:14.584Z,11.00
2022-12-26T05:48:42.027Z,11.00
2022-12-26T05:51:09.315Z,11.00
2022-12-26T05:53:37.095Z,11.00
2022-12-26T05:56:12.355Z,11.00
2022-12-26T05:58:40.557Z,11.00
2022-12-26T06:01:19.906Z,11.00
2022-12-26T06:03:50.252Z,11.00
2022-12-26T06:06:18.520Z,11.00
2022-12-26T06:08:49.169Z,11.00
2022-12-26T06:11:17.462Z,11.00
2022-12-26T06:13:44.935Z,11.00
2022-12-26T06:16:15.175Z,11.00
2022-12-26T06:18:42.588Z,11.00
2022-12-26T06:21:15.634Z,11.00
2022-12-26T06:23:43.453Z,11.00
2022-12-26T06:26:12.752Z,11.00
2022-12-26T06:28:41.636Z,11.10
2022-12-26T06:31:20.863Z,11.10
2022-12-26T06:33:54.292Z,11.20
2022-12-26T06:36:23.728Z,11.20
2022-12-26T06:38:51.959Z,11.20
2022-12-26T06:41:21.601Z,11.30
2022-12-26T06:43:49.243Z,11.30
2022-12-26T06:46:19.475Z,11.40
2022-12-26T06:48:47.273Z,11.40
2022-12-26T06:51:17.420Z,11.40
2022-12-26T06:53:45.272Z,11.40
2022-12-26T06:56:19.066Z,11.40
2022-12-26T06:58:46.861Z,11.40
2022-12-26T07:01:19.093Z,11.50
2022-12-26T07:03:51.293Z,11.50
2022-12-26T07:06:25.534Z,11.70
2022-12-26T07:09:01.954Z,11.70
2022-12-26T07:11:34.615Z,11.90
2022-12-26T07:14:03.008Z,12.00
2022-12-26T07:16:30.965Z,12.10
2022-12-26T07:18:59.166Z,12.30
2022-12-26T07:21:28.192Z,12.30
2022-12-26T07:23:55.888Z,12.40
2022-12-26T07:26:24.669Z,12.50
2022-12-26T07:29:00.018Z,12.70
2022-12-26T07:31:30.217Z,12.80
2022-12-26T07:33:57.864Z,12.90
2022-12-26T07:36:25.511Z,13.10
2022-12-26T07:38:53.078Z,13.20
2022-12-26T07:41:39.213Z,13.40
2022-12-26T07:44:06.718Z,13.50
2022-12-26T07:46:34.506Z,13.70
2022-12-26T07:49:02.554Z,13.80
2022-12-26T07:51:29.879Z,14.00
2022-12-26T07:53:57.106Z,14.20
2022-12-26T07:56:24.939Z,14.40
2022-12-26T10:00:50.487Z,18.80
2022-12-26T10:03:57.315Z,18.90
2022-12-26T10:06:49.471Z,19.00
2022-12-26T10:09:56.717Z,19.10
2022-12-26T10:12:45.601Z,19.20
2022-12-26T10:18:57.975Z,19.40
2022-12-26T10:38:38.781Z,19.90
2022-12-26T10:41:41.541Z,20.10
2022-12-26T10:44:38.539Z,20.00
2022-12-26T10:48:07.433Z,20.10
2022-12-26T10:50:40.357Z,20.20
2022-12-26T10:53:30.228Z,20.20
2022-12-26T10:56:05.471Z,20.30
2022-12-26T10:58:58.813Z,20.40
2022-12-26T11:02:04.871Z,20.60
2022-12-26T11:05:27.403Z,20.80
2022-12-26T11:08:06.087Z,21.10
2022-12-26T11:10:37.961Z,21.40
2022-12-26T11:13:09.561Z,22.10
2022-12-26T11:16:43.246Z,22.60
2022-12-26T11:19:36.894Z,23.20
2022-12-26T11:22:30.569Z,23.60
2022-12-26T11:25:28.153Z,24.10
2022-12-26T11:27:58.399Z,24.20
2022-12-26T11:30:30.908Z,24.20
2022-12-26T11:33:15.027Z,24.20
2022-12-26T11:35:50.157Z,24.10
2022-12-26T11:38:44.918Z,24.30
2022-12-26T11:41:33.361Z,24.70
2022-12-26T11:44:09.883Z,25.10
2022-12-26T11:46:44.178Z,25.50
2022-12-26T11:49:19.998Z,25.80
2022-12-26T11:51:52.887Z,25.20
2022-12-26T11:54:29.450Z,25.30
2022-12-26T11:57:22.501Z,25.70
2022-12-26T11:59:52.065Z,26.10
2022-12-26T12:02:27.649Z,26.00
2022-12-26T12:05:07.016Z,26.10
2022-12-26T12:07:53.190Z,26.60
2022-12-26T12:10:49.743Z,27.30
2022-12-26T12:13:25.431Z,27.20
2022-12-26T12:16:06.338Z,27.00
2022-12-26T12:19:00.306Z,26.70
2022-12-26T12:21:45.331Z,26.00
2022-12-26T12:24:40.616Z,26.20
2022-12-26T12:27:31.830Z,26.40
2022-12-26T12:30:20.982Z,26.70
2022-12-26T12:33:18.715Z,26.90
2022-12-26T12:35:52.879Z,27.10
2022-12-26T12:38:54.922Z,26.90
2022-12-26T12:41:42.547Z,26.70
2022-12-26T12:44:40.083Z,26.40
2022-12-26T12:47:56.112Z,26.20
2022-12-26T12:50:56.748Z,26.00
2022-12-26T12:54:16.250Z,26.10
2022-12-26T12:57:07.310Z,25.80
2022-12-26T12:59:59.565Z,24.70
2022-12-26T13:02:54.888Z,23.90
2022-12-26T13:06:36.194Z,23.20
2022-12-26T13:09:19.426Z,22.40
2022-12-26T13:12:39.130Z,21.50
2022-12-26T13:15:50.051Z,21.00
2022-12-26T13:18:32.397Z,20.80
2022-12-26T13:21:31.220Z,20.60
2022-12-26T13:24:41.245Z,20.10
2022-12-26T13:27:36.727Z,19.90
2022-12-26T13:30:14.220Z,19.90
2022-12-26T13:32:46.575Z,19.80
2022-12-26T13:36:05.750Z,19.60
2022-12-26T13:39:07.369Z,19.60
2022-12-26T13:42:07.144Z,19.50
2022-12-26T15:30:24.360Z,17.00
2022-12-26T15:32:57.496Z,16.80
2022-12-26T15:36:19.969Z,16.80
2022-12-26T15:39:17.118Z,16.70
2022-12-26T15:41:56.142Z,16.60
2022-12-26T15:44:55.190Z,16.50
2022-12-26T15:47:36.506Z,16.50
2022-12-26T15:50:31.334Z,16.40
2022-12-26T15:53:20.209Z,16.30
2022-12-26T15:56:15.507Z,16.30
2022-12-26T15:59:09.293Z,16.30
2022-12-26T16:01:46.464Z,16.20
2022-12-26T16:04:49.859Z,16.20
2022-12-26T16:07:38.932Z,16.10
2022-12-26T16:10:26.151Z,16.10
2022-12-26T16:13:06.809Z,16.00
2022-12-26T16:15:35.020Z,16.00
2022-12-26T16:18:26.107Z,15.90
2022-12-26T16:21:15.869Z,15.90
2022-12-26T16:23:44.683Z,15.80
2022-12-26T16:26:30.551Z,15.80
2022-12-26T16:29:00.772Z,15.70
2022-12-26T16:31:33.934Z,15.70
2022-12-26T16:34:01.427Z,15.70
2022-12-26T16:36:32.934Z,15.60
2022-12-26T16:39:00.264Z,15.60
2022-12-26T16:41:30.998Z,15.50
2022-12-26T16:44:35.419Z,15.40
2022-12-26T16:47:06.943Z,15.40
2022-12-26T16:49:34.966Z,15.30
2022-12-26T16:52:03.041Z,15.20
2022-12-26T16:54:39.962Z,15.10
2022-12-26T16:57:19.259Z,15.10
2022-12-26T16:59:54.340Z,15.10
2022-12-26T17:02:26.278Z,15.00
2022-12-26T17:05:04.980Z,15.00
2022-12-26T17:07:34.947Z,15.00
2022-12-26T17:10:02.701Z,14.90
2022-12-26T17:12:37.450Z,14.90
2022-12-26T17:15:06.884Z,14.90
2022-12-26T17:17:37.464Z,14.80
2022-12-26T17:20:22.869Z,14.80
2022-12-26T17:22:54.708Z,14.80
2022-12-26T17:25:30.861Z,14.80
2022-12-26T17:28:15.169Z,14.80
2022-12-26T17:30:46.380Z,14.70
2022-12-26T17:33:25.140Z,14.70
2022-12-26T17:38:45.855Z,14.70
2022-12-26T17:41:17.572Z,14.70
2022-12-26T17:43:46.915Z,14.70
2022-12-26T17:46:17.501Z,14.70
2022-12-26T17:48:45.398Z,14.70
2022-12-26T17:51:17.318Z,14.70
2022-12-26T17:53:50.665Z,14.70
2022-12-26T17:56:24.447Z,14.70
2022-12-26T17:58:51.917Z,14.70
2022-12-26T18:01:21.745Z,14.60
2022-12-26T18:03:53.022Z,14.60
2022-12-26T18:06:21.981Z,14.50
2022-12-26T18:08:49.382Z,14.50
2022-12-26T18:11:16.898Z,14.40
2022-12-26T18:13:44.593Z,14.40
2022-12-26T18:16:18.699Z,14.40
2022-12-26T18:18:47.439Z,14.40
2022-12-26T18:21:16.095Z,14.30
2022-12-26T18:23:43.529Z,14.30
2022-12-26T18:26:21.211Z,14.40
2022-12-26T18:28:50.624Z,14.40
2022-12-26T18:31:18.486Z,14.50
2022-12-26T18:33:45.788Z,14.50
2022-12-26T18:36:14.895Z,14.50
2022-12-26T18:38:42.678Z,14.50
2022-12-26T18:41:15.250Z,14.60
2022-12-26T18:43:42.617Z,14.60
2022-12-26T18:46:21.927Z,14.50
2022-12-26T18:48:50.080Z,14.50
2022-12-26T18:51:17.421Z,14.40
2022-12-26T18:53:47.455Z,14.40
2022-12-26T18:56:18.892Z,14.30
2022-12-26T18:58:50.032Z,14.30
2022-12-26T19:01:20.142Z,14.30
2022-12-26T19:03:48.228Z,14.20
2022-12-26T19:06:20.669Z,14.20
2022-12-26T19:08:48.669Z,14.10
2022-12-26T19:11:16.049Z,14.10
2022-12-26T19:13:43.581Z,14.10
2022-12-26T19:16:11.244Z,14.00
2022-12-26T19:18:38.917Z,14.00
2022-12-26T19:21:15.004Z,13.90
2022-12-26T19:23:46.508Z,13.90
2022-12-26T19:26:16.795Z,13.80
2022-12-26T19:28:44.361Z,13.80
2022-12-26T19:31:14.277Z,13.80
2022-12-26T19:33:41.732Z,13.80
2022-12-26T19:36:10.084Z,13.80
2022-12-26T19:38:37.711Z,13.80
2022-12-26T19:41:11.360Z,13.90
2022-12-26T19:43:43.863Z,13.90
2022-12-26T19:46:15.711Z,13.90
2022-12-26T19:48:43.804Z,13.90
2022-12-26T19:51:14.249Z,14.00
2022-12-26T19:53:43.174Z,14.00
2022-12-26T19:56:12.638Z,14.10
2022-12-26T19:58:40.564Z,14.10
2022-12-26T20:01:16.845Z,14.10
2022-12-26T20:03:45.355Z,14.10
2022-12-26T20:06:17.194Z,14.10
2022-12-26T20:08:47.097Z,14.10
2022-12-26T20:11:17.741Z,14.10
2022-12-26T20:13:45.298Z,14.10
2022-12-26T20:16:45.763Z,14.20
2022-12-26T20:19:05.965Z,14.10
2022-12-26T20:21:33.722Z,14.10
2022-12-26T20:24:02.491Z,14.10
2022-12-26T20:26:29.970Z,14.10
2022-12-26T20:29:01.545Z,14.10
2022-12-26T20:31:31.020Z,14.00
2022-12-26T20:33:59.358Z,14.00
2022-12-26T20:36:31.797Z,14.00
2022-12-26T20:39:02.832Z,13.90
2022-12-26T20:41:30.729Z,13.90
2022-12-26T20:43:58.837Z,13.80
2022-12-26T20:46:29.475Z,13.80
2022-12-26T20:48:57.040Z,13.80
2022-12-26T20:51:36.576Z,13.70
2022-12-26T20:54:06.186Z,13.70
2022-12-26T20:56:33.871Z,13.70
2022-12-26T20:59:03.935Z,13.70
2022-12-26T21:01:31.547Z,13.70
2022-12-26T21:03:59.603Z,13.70
2022-12-26T21:06:33.037Z,13.60
2022-12-26T21:09:00.745Z,13.60
2022-12-26T21:11:32.570Z,13.60
2022-12-26T21:14:05.357Z,13.60
2022-12-26T21:16:38.999Z,13.60
2022-12-26T21:19:14.337Z,13.60
2022-12-26T21:21:44.873Z,13.60
2022-12-26T21:24:15.959Z,13.70
2022-12-26T21:26:44.288Z,13.70
2022-12-26T21:29:18.294Z,13.70
2022-12-26T21:31:46.297Z,13.80
2022-12-26T21:34:16.104Z,13.80
2022-12-26T21:37:06.406Z,13.80
2022-12-26T21:39:35.658Z,13.80
2022-12-26T21:42:04.228Z,13.80
2022-12-26T21:44:31.688Z,13.80
2022-12-26T21:46:59.048Z,13.80
2022-12-26T21:49:26.353Z,13.90
2022-12-26T21:51:53.821Z,13.90
2022-12-26T21:54:44.820Z,13.90
2022-12-26T21:57:15.970Z,13.80
2022-12-26T21:59:58.403Z,13.80
2022-12-26T22:02:51.288Z,13.70
2022-12-26T22:05:20.843Z,13.70
2022-12-26T22:07:54.273Z,13.60
2022-12-26T22:10:40.964Z,13.60
2022-12-26T22:13:08.585Z,13.70
2022-12-26T22:15:59.383Z,13.80
2022-12-26T22:18:27.229Z,13.80
2022-12-26T22:20:54.603Z,13.80
2022-12-26T22:23:21.968Z,13.80
2022-12-26T22:25:56.639Z,13.70
2022-12-26T22:28:24.540Z,13.50
2022-12-26T22:30:51.843Z,13.40
2022-12-26T22:33:19.527Z,13.30
2022-12-26T22:35:47.318Z,13.20
2022-12-26T22:38:15.327Z,13.10
2022-12-26T22:40:42.877Z,13.00
2022-12-26T22:43:10.341Z,12.90
2022-12-26T22:45:41.464Z,12.90
2022-12-26T22:48:09.474Z,12.80
2022-12-26T22:50:36.917Z,12.70
2022-12-26T22:53:04.241Z,12.70
2022-12-26T22:55:31.859Z,12.70
2022-12-26T22:58:02.302Z,12.60
2022-12-26T23:00:29.951Z,12.60
2022-12-26T23:02:57.255Z,12.50
2022-12-26T23:05:25.017Z,12.40
2022-12-26T23:07:54.187Z,12.40
2022-12-26T23:10:23.879Z,12.30
2022-12-26T23:12:51.894Z,12.30
2022-12-26T23:15:22.697Z,12.40
2022-12-26T23:18:27.505Z,12.50
2022-12-26T23:21:34.804Z,12.50
2022-12-26T23:24:02.178Z,12.60
2022-12-26T23:26:29.447Z,12.60
2022-12-26T23:29:15.443Z,12.70
2022-12-26T23:31:42.755Z,12.80
2022-12-26T23:34:10.251Z,12.80
2022-12-26T23:36:40.722Z,12.90
2022-12-26T23:39:08.215Z,12.90
2022-12-26T23:41:35.547Z,12.80
2022-12-26T23:44:03.589Z,12.80
2022-12-26T23:46:31.016Z,12.70
2022-12-26T23:48:58.270Z,12.60
2022-12-26T23:51:25.716Z,12.60
2022-12-26T23:53:52.975Z,12.60
2022-12-26T23:56:20.251Z,12.50
2022-12-26T23:58:50.688Z,12.50
